sensor_id;sensor_type;location;lat;lon;timestamp;temperature;humidity
2825;DHT22;1420;51.324;12.344;2023-01-10T00:00:55;4.60;99.90
2825;DHT22;1420;51.324;12.344;2023-01-10T00:03:23;4.50;99.90
2825;DHT22;1420;51.324;12.344;2023-01-10T00:05:50;4.50;99.90
2825;DHT22;1420;51.324;12.344;2023-01-10T00:08:18;4.60;99.90
2825;DHT22;1420;51.324;12.344;2023-01-10T00:10:46;4.50;99.90
2825;DHT22;1420;51.324;12.344;2023-01-10T00:13:15;4.60;99.90
2825;DHT22;1420;51.324;12.344;2023-01-10T00:15:47;4.70;99.90
2825;DHT22;1420;51.324;12.344;2023-01-10T00:18:15;4.80;99.90
2825;DHT22;1420;51.324;12.344;2023-01-10T00:20:43;4.90;99.90
2825;DHT22;1420;51.324;12.344;2023-01-10T00:23:11;4.90;99.90
2825;DHT22;1420;51.324;12.344;2023-01-10T00:25:38;4.90;99.90
2825;DHT22;1420;51.324;12.344;2023-01-10T00:28:05;5.00;99.90
2825;DHT22;1420;51.324;12.344;2023-01-10T00:30:37;5.00;99.90
2825;DHT22;1420;51.324;12.344;2023-01-10T00:33:04;5.10;99.90
2825;DHT22;1420;51.324;12.344;2023-01-10T00:35:31;5.10;99.90
2825;DHT22;1420;51.324;12.344;2023-01-10T00:37:58;5.10;99.90
2825;DHT22;1420;51.324;12.344;2023-01-10T00:40:29;5.10;99.90
2825;DHT22;1420;51.324;12.344;2023-01-10T00:42:57;5.10;99.90
2825;DHT22;1420;51.324;12.344;2023-01-10T00:45:29;5.10;99.90
2825;DHT22;1420;51.324;12.344;2023-01-10T00:47:57;5.30;99.90
2825;DHT22;1420;51.324;12.344;2023-01-10T00:50:25;5.30;99.90
2825;DHT22;1420;51.324;12.344;2023-01-10T00:52:52;5.30;99.90
2825;DHT22;1420;51.324;12.344;2023-01-10T00:55:19;5.30;99.90
2825;DHT22;1420;51.324;12.344;2023-01-10T00:57:46;5.30;99.90
2825;DHT22;1420;51.324;12.344;2023-01-10T01:00:15;5.40;99.90
2825;DHT22;1420;51.324;12.344;2023-01-10T01:02:42;5.40;99.90
2825;DHT22;1420;51.324;12.344;2023-01-10T01:05:09;5.40;99.90
2825;DHT22;1420;51.324;12.344;2023-01-10T01:07:36;5.40;99.90
2825;DHT22;1420;51.324;12.344;2023-01-10T01:10:04;5.40;99.90
2825;DHT22;1420;51.324;12.344;2023-01-10T01:12:36;5.40;99.90
2825;DHT22;1420;51.324;12.344;2023-01-10T01:15:04;5.40;99.90
2825;DHT22;1420;51.324;12.344;2023-01-10T01:17:31;5.40;99.90
2825;DHT22;1420;51.324;12.344;2023-01-10T01:19:58;5.50;99.90
2825;DHT22;1420;51.324;12.344;2023-01-10T01:22:26;5.50;99.90
2825;DHT22;1420;51.324;12.344;2023-01-10T01:24:53;5.40;99.90
2825;DHT22;1420;51.324;12.344;2023-01-10T01:27:20;5.40;99.90
2825;DHT22;1420;51.324;12.344;2023-01-10T01:29:47;5.30;99.90
2825;DHT22;1420;51.324;12.344;2023-01-10T01:32:15;5.20;99.90
2825;DHT22;1420;51.324;12.344;2023-01-10T01:34:42;5.20;99.90
2825;DHT22;1420;51.324;12.344;2023-01-10T01:37:09;5.10;99.90
2825;DHT22;1420;51.324;12.344;2023-01-10T01:39:36;5.10;99.90
2825;DHT22;1420;51.324;12.344;2023-01-10T01:42:04;5.10;99.90
2825;DHT22;1420;51.324;12.344;2023-01-10T01:44:32;5.10;99.90
2825;DHT22;1420;51.324;12.344;2023-01-10T01:47:05;5.00;99.90
2825;DHT22;1420;51.324;12.344;2023-01-10T01:49:31;5.00;99.90
2825;DHT22;1420;51.324;12.344;2023-01-10T01:52:00;5.00;99.90
2825;DHT22;1420;51.324;12.344;2023-01-10T01:54:26;5.10;99.90
2825;DHT22;1420;51.324;12.344;2023-01-10T01:57:06;5.20;99.90
2825;DHT22;1420;51.324;12.344;2023-01-10T01:59:35;5.10;99.90
2825;DHT22;1420;51.324;12.344;2023-01-10T02:02:01;5.20;99.90
2825;DHT22;1420;51.324;12.344;2023-01-10T02:04:30;5.20;99.90
2825;DHT22;1420;51.324;12.344;2023-01-10T02:06:56;5.20;99.90
2825;DHT22;1420;51.324;12.344;2023-01-10T02:09:26;5.20;99.90
2825;DHT22;1420;51.324;12.344;2023-01-10T02:11:51;5.20;99.90
2825;DHT22;1420;51.324;12.344;2023-01-10T02:14:18;5.20;99.90
2825;DHT22;1420;51.324;12.344;2023-01-10T02:16:45;5.20;99.90
2825;DHT22;1420;51.324;12.344;2023-01-10T02:22:24;5.20;99.90
2825;DHT22;1420;51.324;12.344;2023-01-10T02:25:10;5.20;99.90
2825;DHT22;1420;51.324;12.344;2023-01-10T02:27:57;5.30;99.90
2825;DHT22;1420;51.324;12.344;2023-01-10T02:33:04;5.20;99.90
2825;DHT22;1420;51.324;12.344;2023-01-10T02:36:01;5.20;99.90
2825;DHT22;1420;51.324;12.344;2023-01-10T02:38:39;5.20;99.90
2825;DHT22;1420;51.324;12.344;2023-01-10T02:41:12;5.10;99.90
2825;DHT22;1420;51.324;12.344;2023-01-10T02:43:39;5.10;99.90
2825;DHT22;1420;51.324;12.344;2023-01-10T02:46:07;5.00;99.90
2825;DHT22;1420;51.324;12.344;2023-01-10T02:48:33;5.10;99.90
2825;DHT22;1420;51.324;12.344;2023-01-10T02:51:05;5.10;99.90
2825;DHT22;1420;51.324;12.344;2023-01-10T02:53:33;5.00;99.90
2825;DHT22;1420;51.324;12.344;2023-01-10T03:01:54;5.20;99.90
2825;DHT22;1420;51.324;12.344;2023-01-10T03:04:31;5.10;99.90
2825;DHT22;1420;51.324;12.344;2023-01-10T03:06:57;5.20;99.90
2825;DHT22;1420;51.324;12.344;2023-01-10T03:09:34;5.20;99.90
2825;DHT22;1420;51.324;12.344;2023-01-10T03:12:20;5.30;99.90
2825;DHT22;1420;51.324;12.344;2023-01-10T03:14:46;5.30;99.90
2825;DHT22;1420;51.324;12.344;2023-01-10T03:17:13;5.30;99.90
2825;DHT22;1420;51.324;12.344;2023-01-10T03:19:43;5.40;99.90
2825;DHT22;1420;51.324;12.344;2023-01-10T03:22:09;5.40;99.90
2825;DHT22;1420;51.324;12.344;2023-01-10T03:24:38;5.40;99.90
2825;DHT22;1420;51.324;12.344;2023-01-10T03:27:12;5.30;99.90
2825;DHT22;1420;51.324;12.344;2023-01-10T03:29:41;5.30;99.90
2825;DHT22;1420;51.324;12.344;2023-01-10T03:32:06;5.20;99.90
2825;DHT22;1420;51.324;12.344;2023-01-10T03:34:34;5.30;99.90
2825;DHT22;1420;51.324;12.344;2023-01-10T03:37:07;5.20;99.90
2825;DHT22;1420;51.324;12.344;2023-01-10T03:39:39;5.20;99.90
2825;DHT22;1420;51.324;12.344;2023-01-10T03:42:10;5.20;99.90
2825;DHT22;1420;51.324;12.344;2023-01-10T03:44:41;5.20;99.90
2825;DHT22;1420;51.324;12.344;2023-01-10T03:47:18;5.20;99.90
2825;DHT22;1420;51.324;12.344;2023-01-10T03:49:43;5.40;99.90
2825;DHT22;1420;51.324;12.344;2023-01-10T03:52:12;5.30;99.90
2825;DHT22;1420;51.324;12.344;2023-01-10T03:54:38;5.30;99.90
2825;DHT22;1420;51.324;12.344;2023-01-10T03:57:05;5.30;99.90
2825;DHT22;1420;51.324;12.344;2023-01-10T03:59:32;5.20;99.90
2825;DHT22;1420;51.324;12.344;2023-01-10T04:01:59;5.30;99.90
2825;DHT22;1420;51.324;12.344;2023-01-10T04:04:27;5.40;99.90
2825;DHT22;1420;51.324;12.344;2023-01-10T04:06:54;5.30;99.90
2825;DHT22;1420;51.324;12.344;2023-01-10T04:09:21;5.20;99.90
2825;DHT22;1420;51.324;12.344;2023-01-10T04:11:48;5.20;99.90
2825;DHT22;1420;51.324;12.344;2023-01-10T04:14:15;5.30;99.90
2825;DHT22;1420;51.324;12.344;2023-01-10T04:16:43;5.30;99.90
2825;DHT22;1420;51.324;12.344;2023-01-10T04:19:10;5.30;99.90
2825;DHT22;1420;51.324;12.344;2023-01-10T04:21:37;5.20;99.90
2825;DHT22;1420;51.324;12.344;2023-01-10T04:24:05;5.30;99.90
2825;DHT22;1420;51.324;12.344;2023-01-10T04:26:32;5.30;99.90
2825;DHT22;1420;51.324;12.344;2023-01-10T04:29:00;5.40;99.90
2825;DHT22;1420;51.324;12.344;2023-01-10T04:31:28;5.40;99.90
2825;DHT22;1420;51.324;12.344;2023-01-10T04:33:56;5.40;99.90
2825;DHT22;1420;51.324;12.344;2023-01-10T04:36:24;5.40;99.90
2825;DHT22;1420;51.324;12.344;2023-01-10T04:38:52;5.40;99.90
2825;DHT22;1420;51.324;12.344;2023-01-10T04:41:20;5.50;99.90
2825;DHT22;1420;51.324;12.344;2023-01-10T04:43:47;5.40;99.90
2825;DHT22;1420;51.324;12.344;2023-01-10T04:46:14;5.50;99.90
2825;DHT22;1420;51.324;12.344;2023-01-10T04:48:42;5.50;99.90
2825;DHT22;1420;51.324;12.344;2023-01-10T04:51:09;5.50;99.90
2825;DHT22;1420;51.324;12.344;2023-01-10T04:53:37;5.50;99.90
2825;DHT22;1420;51.324;12.344;2023-01-10T04:56:05;5.50;99.90
2825;DHT22;1420;51.324;12.344;2023-01-10T04:58:32;5.50;99.90
2825;DHT22;1420;51.324;12.344;2023-01-10T05:00:58;5.60;99.90
2825;DHT22;1420;51.324;12.344;2023-01-10T05:03:26;5.60;99.90
2825;DHT22;1420;51.324;12.344;2023-01-10T05:05:56;5.60;99.90
2825;DHT22;1420;51.324;12.344;2023-01-10T05:08:21;5.60;99.90
2825;DHT22;1420;51.324;12.344;2023-01-10T05:10:48;5.70;99.90
2825;DHT22;1420;51.324;12.344;2023-01-10T05:13:16;5.70;99.90
2825;DHT22;1420;51.324;12.344;2023-01-10T05:15:43;5.60;99.90
2825;DHT22;1420;51.324;12.344;2023-01-10T05:18:10;5.70;99.90
2825;DHT22;1420;51.324;12.344;2023-01-10T05:20:38;5.80;99.90
2825;DHT22;1420;51.324;12.344;2023-01-10T05:23:05;5.80;99.90
2825;DHT22;1420;51.324;12.344;2023-01-10T05:25:33;5.80;99.90
2825;DHT22;1420;51.324;12.344;2023-01-10T05:28:01;5.80;99.90
2825;DHT22;1420;51.324;12.344;2023-01-10T05:30:28;5.80;99.90
2825;DHT22;1420;51.324;12.344;2023-01-10T05:32:55;5.80;99.90
2825;DHT22;1420;51.324;12.344;2023-01-10T05:35:24;5.80;99.90
2825;DHT22;1420;51.324;12.344;2023-01-10T05:37:55;5.80;99.90
2825;DHT22;1420;51.324;12.344;2023-01-10T05:40:23;5.70;99.90
2825;DHT22;1420;51.324;12.344;2023-01-10T05:42:51;5.80;99.90
2825;DHT22;1420;51.324;12.344;2023-01-10T05:45:19;5.80;99.90
2825;DHT22;1420;51.324;12.344;2023-01-10T05:47:46;5.80;99.90
2825;DHT22;1420;51.324;12.344;2023-01-10T05:50:14;5.80;99.90
2825;DHT22;1420;51.324;12.344;2023-01-10T05:52:41;5.80;99.90
2825;DHT22;1420;51.324;12.344;2023-01-10T05:55:08;5.70;99.90
2825;DHT22;1420;51.324;12.344;2023-01-10T05:57:35;5.80;99.90
2825;DHT22;1420;51.324;12.344;2023-01-10T06:00:03;5.70;99.90
2825;DHT22;1420;51.324;12.344;2023-01-10T06:02:31;5.70;99.90
2825;DHT22;1420;51.324;12.344;2023-01-10T06:04:57;5.80;99.90
2825;DHT22;1420;51.324;12.344;2023-01-10T06:07:25;5.90;99.90
2825;DHT22;1420;51.324;12.344;2023-01-10T06:09:53;5.80;99.90
2825;DHT22;1420;51.324;12.344;2023-01-10T06:12:21;5.80;99.90
2825;DHT22;1420;51.324;12.344;2023-01-10T06:14:48;5.80;99.90
2825;DHT22;1420;51.324;12.344;2023-01-10T06:17:16;5.90;99.90
2825;DHT22;1420;51.324;12.344;2023-01-10T06:19:44;5.90;99.90
2825;DHT22;1420;51.324;12.344;2023-01-10T06:22:11;5.90;99.90
2825;DHT22;1420;51.324;12.344;2023-01-10T06:24:38;5.90;99.90
2825;DHT22;1420;51.324;12.344;2023-01-10T06:27:05;6.00;99.90
2825;DHT22;1420;51.324;12.344;2023-01-10T06:29:33;5.90;99.90
2825;DHT22;1420;51.324;12.344;2023-01-10T06:32:00;6.00;99.90
2825;DHT22;1420;51.324;12.344;2023-01-10T06:34:27;6.00;99.90
2825;DHT22;1420;51.324;12.344;2023-01-10T06:36:54;6.00;99.90
2825;DHT22;1420;51.324;12.344;2023-01-10T06:39:21;6.00;99.90
2825;DHT22;1420;51.324;12.344;2023-01-10T06:41:49;6.00;99.90
2825;DHT22;1420;51.324;12.344;2023-01-10T06:44:16;5.90;99.90
2825;DHT22;1420;51.324;12.344;2023-01-10T06:46:43;5.90;99.90
2825;DHT22;1420;51.324;12.344;2023-01-10T06:49:10;5.90;99.90
2825;DHT22;1420;51.324;12.344;2023-01-10T06:51:38;5.90;99.90
2825;DHT22;1420;51.324;12.344;2023-01-10T06:54:05;5.90;99.90
2825;DHT22;1420;51.324;12.344;2023-01-10T06:56:33;6.00;99.90
2825;DHT22;1420;51.324;12.344;2023-01-10T06:59:01;6.00;99.90
2825;DHT22;1420;51.324;12.344;2023-01-10T07:01:28;6.00;99.90
2825;DHT22;1420;51.324;12.344;2023-01-10T07:03:55;6.10;99.90
2825;DHT22;1420;51.324;12.344;2023-01-10T07:06:22;6.10;99.90
2825;DHT22;1420;51.324;12.344;2023-01-10T07:08:49;6.10;99.90
2825;DHT22;1420;51.324;12.344;2023-01-10T07:11:17;6.10;99.90
2825;DHT22;1420;51.324;12.344;2023-01-10T07:13:44;6.20;99.90
2825;DHT22;1420;51.324;12.344;2023-01-10T07:16:12;6.20;99.90
2825;DHT22;1420;51.324;12.344;2023-01-10T07:18:39;6.20;99.90
2825;DHT22;1420;51.324;12.344;2023-01-10T07:21:05;6.20;99.90
2825;DHT22;1420;51.324;12.344;2023-01-10T07:23:33;6.30;99.90
2825;DHT22;1420;51.324;12.344;2023-01-10T07:26:01;6.50;99.90
2825;DHT22;1420;51.324;12.344;2023-01-10T07:28:28;6.60;99.90
2825;DHT22;1420;51.324;12.344;2023-01-10T07:30:58;6.70;99.90
2825;DHT22;1420;51.324;12.344;2023-01-10T07:33:25;6.90;99.90
2825;DHT22;1420;51.324;12.344;2023-01-10T07:35:52;6.90;99.90
2825;DHT22;1420;51.324;12.344;2023-01-10T07:38:20;6.90;99.90
2825;DHT22;1420;51.324;12.344;2023-01-10T07:40:47;6.70;99.90
2825;DHT22;1420;51.324;12.344;2023-01-10T07:43:14;6.80;99.90
2825;DHT22;1420;51.324;12.344;2023-01-10T07:45:41;6.60;99.90
2825;DHT22;1420;51.324;12.344;2023-01-10T07:48:08;6.60;99.90
2825;DHT22;1420;51.324;12.344;2023-01-10T07:50:36;6.60;99.90
2825;DHT22;1420;51.324;12.344;2023-01-10T07:53:04;6.50;99.90
2825;DHT22;1420;51.324;12.344;2023-01-10T07:55:30;6.40;99.90
2825;DHT22;1420;51.324;12.344;2023-01-10T07:57:57;6.50;99.90
2825;DHT22;1420;51.324;12.344;2023-01-10T08:00:25;6.40;99.90
2825;DHT22;1420;51.324;12.344;2023-01-10T08:02:52;6.30;99.90
2825;DHT22;1420;51.324;12.344;2023-01-10T08:05:19;6.30;99.90
2825;DHT22;1420;51.324;12.344;2023-01-10T08:07:46;6.30;99.90
2825;DHT22;1420;51.324;12.344;2023-01-10T08:10:13;6.40;99.90
2825;DHT22;1420;51.324;12.344;2023-01-10T08:12:43;6.40;99.90
2825;DHT22;1420;51.324;12.344;2023-01-10T08:15:10;6.40;99.90
2825;DHT22;1420;51.324;12.344;2023-01-10T08:17:40;6.40;99.90
2825;DHT22;1420;51.324;12.344;2023-01-10T08:20:09;6.40;99.90
2825;DHT22;1420;51.324;12.344;2023-01-10T08:22:36;6.50;99.90
2825;DHT22;1420;51.324;12.344;2023-01-10T08:25:03;6.50;99.90
2825;DHT22;1420;51.324;12.344;2023-01-10T08:27:31;6.70;99.90
2825;DHT22;1420;51.324;12.344;2023-01-10T08:29:58;6.60;99.90
2825;DHT22;1420;51.324;12.344;2023-01-10T08:32:26;6.70;99.90
2825;DHT22;1420;51.324;12.344;2023-01-10T08:34:53;6.70;99.90
2825;DHT22;1420;51.324;12.344;2023-01-10T08:37:20;6.60;99.90
2825;DHT22;1420;51.324;12.344;2023-01-10T08:39:47;6.70;99.90
2825;DHT22;1420;51.324;12.344;2023-01-10T08:42:15;6.60;99.90
2825;DHT22;1420;51.324;12.344;2023-01-10T08:44:42;6.50;99.90
2825;DHT22;1420;51.324;12.344;2023-01-10T08:47:09;6.50;99.90
2825;DHT22;1420;51.324;12.344;2023-01-10T08:49:36;6.50;99.90
2825;DHT22;1420;51.324;12.344;2023-01-10T08:52:03;6.50;99.90
2825;DHT22;1420;51.324;12.344;2023-01-10T08:54:31;6.60;99.90
2825;DHT22;1420;51.324;12.344;2023-01-10T08:56:58;6.50;99.90
2825;DHT22;1420;51.324;12.344;2023-01-10T08:59:25;6.60;99.90
2825;DHT22;1420;51.324;12.344;2023-01-10T09:01:52;6.50;99.90
2825;DHT22;1420;51.324;12.344;2023-01-10T09:04:19;6.50;99.90
2825;DHT22;1420;51.324;12.344;2023-01-10T09:06:47;6.60;99.90
2825;DHT22;1420;51.324;12.344;2023-01-10T09:09:14;6.60;99.90
2825;DHT22;1420;51.324;12.344;2023-01-10T09:11:41;6.60;99.90
2825;DHT22;1420;51.324;12.344;2023-01-10T09:14:08;6.60;99.90
2825;DHT22;1420;51.324;12.344;2023-01-10T09:16:35;6.70;99.90
2825;DHT22;1420;51.324;12.344;2023-01-10T09:19:03;6.80;99.90
2825;DHT22;1420;51.324;12.344;2023-01-10T09:21:30;6.70;99.90
2825;DHT22;1420;51.324;12.344;2023-01-10T09:23:57;6.70;99.90
2825;DHT22;1420;51.324;12.344;2023-01-10T09:26:24;6.80;99.90
2825;DHT22;1420;51.324;12.344;2023-01-10T09:28:51;6.90;99.90
2825;DHT22;1420;51.324;12.344;2023-01-10T09:31:19;6.80;99.90
2825;DHT22;1420;51.324;12.344;2023-01-10T09:33:46;6.80;99.90
2825;DHT22;1420;51.324;12.344;2023-01-10T09:36:13;6.90;99.90
2825;DHT22;1420;51.324;12.344;2023-01-10T09:38:40;7.00;99.90
2825;DHT22;1420;51.324;12.344;2023-01-10T09:41:16;7.00;99.90
2825;DHT22;1420;51.324;12.344;2023-01-10T09:43:50;7.00;99.90
2825;DHT22;1420;51.324;12.344;2023-01-10T09:46:25;7.00;99.90
2825;DHT22;1420;51.324;12.344;2023-01-10T09:48:54;7.00;99.90
2825;DHT22;1420;51.324;12.344;2023-01-10T09:51:36;7.00;99.90
2825;DHT22;1420;51.324;12.344;2023-01-10T09:54:03;7.10;99.90
2825;DHT22;1420;51.324;12.344;2023-01-10T09:56:31;7.00;99.90
2825;DHT22;1420;51.324;12.344;2023-01-10T09:58:58;7.20;99.90
2825;DHT22;1420;51.324;12.344;2023-01-10T10:01:26;7.20;99.90
2825;DHT22;1420;51.324;12.344;2023-01-10T10:04:59;7.20;99.90
2825;DHT22;1420;51.324;12.344;2023-01-10T10:06:35;7.20;99.90
2825;DHT22;1420;51.324;12.344;2023-01-10T10:09:02;7.20;99.90
2825;DHT22;1420;51.324;12.344;2023-01-10T10:11:36;7.20;99.90
2825;DHT22;1420;51.324;12.344;2023-01-10T10:14:07;7.10;99.90
2825;DHT22;1420;51.324;12.344;2023-01-10T10:16:47;7.10;99.90
2825;DHT22;1420;51.324;12.344;2023-01-10T10:19:17;7.20;99.90
2825;DHT22;1420;51.324;12.344;2023-01-10T10:21:46;7.00;99.90
2825;DHT22;1420;51.324;12.344;2023-01-10T10:24:17;7.10;99.90
2825;DHT22;1420;51.324;12.344;2023-01-10T10:27:04;7.00;99.90
2825;DHT22;1420;51.324;12.344;2023-01-10T10:32:15;7.20;99.90
2825;DHT22;1420;51.324;12.344;2023-01-10T10:34:49;7.20;99.90
2825;DHT22;1420;51.324;12.344;2023-01-10T10:37:24;7.20;99.90
2825;DHT22;1420;51.324;12.344;2023-01-10T10:39:53;7.20;99.90
2825;DHT22;1420;51.324;12.344;2023-01-10T10:42:20;7.20;99.90
2825;DHT22;1420;51.324;12.344;2023-01-10T10:44:53;7.30;99.90
2825;DHT22;1420;51.324;12.344;2023-01-10T10:47:20;7.30;99.90
2825;DHT22;1420;51.324;12.344;2023-01-10T10:49:58;7.50;99.90
2825;DHT22;1420;51.324;12.344;2023-01-10T10:52:28;7.50;99.90
2825;DHT22;1420;51.324;12.344;2023-01-10T10:54:54;7.60;99.90
2825;DHT22;1420;51.324;12.344;2023-01-10T10:57:23;7.60;99.90
2825;DHT22;1420;51.324;12.344;2023-01-10T10:59:49;7.60;99.90
2825;DHT22;1420;51.324;12.344;2023-01-10T11:02:19;7.50;99.90
2825;DHT22;1420;51.324;12.344;2023-01-10T11:04:45;7.50;99.90
2825;DHT22;1420;51.324;12.344;2023-01-10T11:07:14;7.50;99.90
2825;DHT22;1420;51.324;12.344;2023-01-10T11:09:39;7.40;99.90
2825;DHT22;1420;51.324;12.344;2023-01-10T11:12:10;7.50;99.90
2825;DHT22;1420;51.324;12.344;2023-01-10T11:14:40;7.60;99.90
2825;DHT22;1420;51.324;12.344;2023-01-10T11:20:04;7.80;99.90
2825;DHT22;1420;51.324;12.344;2023-01-10T11:22:35;7.90;99.90
2825;DHT22;1420;51.324;12.344;2023-01-10T11:25:00;7.70;99.90
2825;DHT22;1420;51.324;12.344;2023-01-10T11:27:28;7.90;99.90
2825;DHT22;1420;51.324;12.344;2023-01-10T11:29:58;7.90;99.90
2825;DHT22;1420;51.324;12.344;2023-01-10T11:32:47;7.80;99.90
2825;DHT22;1420;51.324;12.344;2023-01-10T11:35:14;7.70;99.90
2825;DHT22;1420;51.324;12.344;2023-01-10T11:37:36;7.70;99.90
2825;DHT22;1420;51.324;12.344;2023-01-10T11:40:12;7.60;99.90
2825;DHT22;1420;51.324;12.344;2023-01-10T11:42:34;7.60;99.90
2825;DHT22;1420;51.324;12.344;2023-01-10T11:45:40;7.60;99.90
2825;DHT22;1420;51.324;12.344;2023-01-10T11:47:56;7.60;99.90
2825;DHT22;1420;51.324;12.344;2023-01-10T11:50:25;7.70;99.90
2825;DHT22;1420;51.324;12.344;2023-01-10T11:52:52;7.80;99.90
2825;DHT22;1420;51.324;12.344;2023-01-10T11:55:22;7.90;99.90
2825;DHT22;1420;51.324;12.344;2023-01-10T11:58:02;7.90;99.90
2825;DHT22;1420;51.324;12.344;2023-01-10T12:00:31;7.90;99.90
2825;DHT22;1420;51.324;12.344;2023-01-10T12:02:58;8.00;99.90
2825;DHT22;1420;51.324;12.344;2023-01-10T12:05:25;7.90;99.90
2825;DHT22;1420;51.324;12.344;2023-01-10T12:07:55;8.00;99.90
2825;DHT22;1420;51.324;12.344;2023-01-10T12:10:22;8.10;99.90
2825;DHT22;1420;51.324;12.344;2023-01-10T12:12:54;7.90;99.90
2825;DHT22;1420;51.324;12.344;2023-01-10T12:15:25;8.00;99.90
2825;DHT22;1420;51.324;12.344;2023-01-10T12:17:52;7.80;99.90
2825;DHT22;1420;51.324;12.344;2023-01-10T12:20:19;7.80;99.90
2825;DHT22;1420;51.324;12.344;2023-01-10T12:22:47;7.80;99.90
2825;DHT22;1420;51.324;12.344;2023-01-10T12:25:33;7.80;99.90
2825;DHT22;1420;51.324;12.344;2023-01-10T12:27:48;7.70;99.90
2825;DHT22;1420;51.324;12.344;2023-01-10T12:30:17;7.80;99.90
2825;DHT22;1420;51.324;12.344;2023-01-10T12:32:45;7.80;99.90
2825;DHT22;1420;51.324;12.344;2023-01-10T12:35:21;7.90;99.90
2825;DHT22;1420;51.324;12.344;2023-01-10T12:37:50;7.90;99.90
2825;DHT22;1420;51.324;12.344;2023-01-10T12:42:55;7.80;99.90
2825;DHT22;1420;51.324;12.344;2023-01-10T12:45:27;7.80;99.90
2825;DHT22;1420;51.324;12.344;2023-01-10T12:47:58;7.80;99.90
2825;DHT22;1420;51.324;12.344;2023-01-10T12:50:32;7.70;99.90
2825;DHT22;1420;51.324;12.344;2023-01-10T12:55:43;7.80;99.90
2825;DHT22;1420;51.324;12.344;2023-01-10T12:58:14;7.90;99.90
2825;DHT22;1420;51.324;12.344;2023-01-10T13:00:40;7.90;99.90
2825;DHT22;1420;51.324;12.344;2023-01-10T13:03:11;7.80;99.90
2825;DHT22;1420;51.324;12.344;2023-01-10T13:05:37;7.80;99.90
2825;DHT22;1420;51.324;12.344;2023-01-10T13:08:09;7.80;99.90
2825;DHT22;1420;51.324;12.344;2023-01-10T13:10:37;7.90;99.90
2825;DHT22;1420;51.324;12.344;2023-01-10T13:13:21;7.90;99.90
2825;DHT22;1420;51.324;12.344;2023-01-10T13:16:00;8.00;99.90
2825;DHT22;1420;51.324;12.344;2023-01-10T13:18:25;8.00;99.90
2825;DHT22;1420;51.324;12.344;2023-01-10T13:21:08;7.80;99.90
2825;DHT22;1420;51.324;12.344;2023-01-10T13:23:38;7.90;99.90
2825;DHT22;1420;51.324;12.344;2023-01-10T13:26:05;7.80;99.90
2825;DHT22;1420;51.324;12.344;2023-01-10T13:28:32;7.80;99.90
2825;DHT22;1420;51.324;12.344;2023-01-10T13:31:00;7.90;99.90
2825;DHT22;1420;51.324;12.344;2023-01-10T13:33:28;7.90;99.90
2825;DHT22;1420;51.324;12.344;2023-01-10T13:35:57;7.80;99.90
2825;DHT22;1420;51.324;12.344;2023-01-10T13:38:29;7.80;99.90
2825;DHT22;1420;51.324;12.344;2023-01-10T13:41:01;7.90;99.90
2825;DHT22;1420;51.324;12.344;2023-01-10T13:43:30;7.90;99.90
2825;DHT22;1420;51.324;12.344;2023-01-10T13:48:39;8.00;99.90
2825;DHT22;1420;51.324;12.344;2023-01-10T13:51:15;7.90;99.90
2825;DHT22;1420;51.324;12.344;2023-01-10T13:53:43;7.90;99.90
2825;DHT22;1420;51.324;12.344;2023-01-10T13:58:48;7.90;99.90
2825;DHT22;1420;51.324;12.344;2023-01-10T14:01:35;7.90;99.90
2825;DHT22;1420;51.324;12.344;2023-01-10T14:04:16;7.90;99.90
2825;DHT22;1420;51.324;12.344;2023-01-10T14:06:36;7.80;99.90
2825;DHT22;1420;51.324;12.344;2023-01-10T14:09:27;7.90;99.90
2825;DHT22;1420;51.324;12.344;2023-01-10T14:11:47;7.80;99.90
2825;DHT22;1420;51.324;12.344;2023-01-10T14:14:02;7.90;99.90
2825;DHT22;1420;51.324;12.344;2023-01-10T14:16:36;7.90;99.90
2825;DHT22;1420;51.324;12.344;2023-01-10T14:19:03;7.80;99.90
2825;DHT22;1420;51.324;12.344;2023-01-10T14:21:31;7.80;99.90
2825;DHT22;1420;51.324;12.344;2023-01-10T14:23:58;7.80;99.90
2825;DHT22;1420;51.324;12.344;2023-01-10T14:26:33;7.80;99.90
2825;DHT22;1420;51.324;12.344;2023-01-10T14:28:59;7.80;99.90
2825;DHT22;1420;51.324;12.344;2023-01-10T14:31:26;7.80;99.90
2825;DHT22;1420;51.324;12.344;2023-01-10T14:33:53;7.80;99.90
2825;DHT22;1420;51.324;12.344;2023-01-10T14:36:23;7.90;99.90
2825;DHT22;1420;51.324;12.344;2023-01-10T14:38:51;7.90;99.90
2825;DHT22;1420;51.324;12.344;2023-01-10T14:41:30;7.80;99.90
2825;DHT22;1420;51.324;12.344;2023-01-10T14:43:56;7.70;99.90
2825;DHT22;1420;51.324;12.344;2023-01-10T14:46:28;7.70;99.90
2825;DHT22;1420;51.324;12.344;2023-01-10T14:48:52;7.70;99.90
2825;DHT22;1420;51.324;12.344;2023-01-10T14:51:22;7.70;99.90
2825;DHT22;1420;51.324;12.344;2023-01-10T14:53:56;7.60;99.90
2825;DHT22;1420;51.324;12.344;2023-01-10T14:56:25;7.50;99.90
2825;DHT22;1420;51.324;12.344;2023-01-10T14:58:51;7.60;99.90
2825;DHT22;1420;51.324;12.344;2023-01-10T15:01:27;7.40;99.90
2825;DHT22;1420;51.324;12.344;2023-01-10T15:03:54;7.50;99.90
2825;DHT22;1420;51.324;12.344;2023-01-10T15:06:21;7.40;99.90
2825;DHT22;1420;51.324;12.344;2023-01-10T15:08:55;7.40;99.90
2825;DHT22;1420;51.324;12.344;2023-01-10T15:11:21;7.30;99.90
2825;DHT22;1420;51.324;12.344;2023-01-10T15:13:51;7.40;99.90
2825;DHT22;1420;51.324;12.344;2023-01-10T15:16:20;7.40;99.90
2825;DHT22;1420;51.324;12.344;2023-01-10T15:18:46;7.40;99.90
2825;DHT22;1420;51.324;12.344;2023-01-10T15:21:13;7.40;99.90
2825;DHT22;1420;51.324;12.344;2023-01-10T15:23:42;7.30;99.90
2825;DHT22;1420;51.324;12.344;2023-01-10T15:26:13;7.30;99.90
2825;DHT22;1420;51.324;12.344;2023-01-10T15:28:40;7.30;99.90
2825;DHT22;1420;51.324;12.344;2023-01-10T15:31:08;7.10;99.90
2825;DHT22;1420;51.324;12.344;2023-01-10T15:33:36;7.10;99.90
2825;DHT22;1420;51.324;12.344;2023-01-10T15:36:05;7.10;99.90
2825;DHT22;1420;51.324;12.344;2023-01-10T15:38:33;7.20;99.90
2825;DHT22;1420;51.324;12.344;2023-01-10T15:40:59;7.10;99.90
2825;DHT22;1420;51.324;12.344;2023-01-10T15:43:29;7.20;99.90
2825;DHT22;1420;51.324;12.344;2023-01-10T15:45:57;7.20;99.90
2825;DHT22;1420;51.324;12.344;2023-01-10T15:48:32;7.30;99.90
2825;DHT22;1420;51.324;12.344;2023-01-10T15:51:13;7.00;99.90
2825;DHT22;1420;51.324;12.344;2023-01-10T15:53:51;7.20;99.90
2825;DHT22;1420;51.324;12.344;2023-01-10T15:56:18;7.20;99.90
2825;DHT22;1420;51.324;12.344;2023-01-10T15:58:45;7.10;99.90
2825;DHT22;1420;51.324;12.344;2023-01-10T16:01:13;7.00;99.90
2825;DHT22;1420;51.324;12.344;2023-01-10T16:03:44;6.90;99.90
2825;DHT22;1420;51.324;12.344;2023-01-10T16:06:18;6.90;99.90
2825;DHT22;1420;51.324;12.344;2023-01-10T16:08:46;7.00;99.90
2825;DHT22;1420;51.324;12.344;2023-01-10T16:11:18;6.90;99.90
2825;DHT22;1420;51.324;12.344;2023-01-10T16:13:44;6.70;99.90
2825;DHT22;1420;51.324;12.344;2023-01-10T16:16:14;6.60;99.90
2825;DHT22;1420;51.324;12.344;2023-01-10T16:18:39;6.50;99.90
2825;DHT22;1420;51.324;12.344;2023-01-10T16:21:06;6.60;99.90
2825;DHT22;1420;51.324;12.344;2023-01-10T16:23:33;6.50;99.90
2825;DHT22;1420;51.324;12.344;2023-01-10T16:26:02;6.40;99.90
2825;DHT22;1420;51.324;12.344;2023-01-10T16:28:27;6.50;99.90
2825;DHT22;1420;51.324;12.344;2023-01-10T16:30:55;6.50;99.90
2825;DHT22;1420;51.324;12.344;2023-01-10T16:33:24;6.60;99.90
2825;DHT22;1420;51.324;12.344;2023-01-10T16:35:50;6.50;99.90
2825;DHT22;1420;51.324;12.344;2023-01-10T16:38:17;6.50;99.90
2825;DHT22;1420;51.324;12.344;2023-01-10T16:40:47;6.50;99.90